createdAt,value
2022-11-09T00:02:08.248Z,100307.31
2022-11-09T00:07:31.553Z,100305.81
2022-11-09T00:12:54.822Z,100306.59
2022-11-09T00:18:20.314Z,100303.25
2022-11-09T00:23:43.623Z,100311.03
2022-11-09T00:29:06.805Z,100300.19
2022-11-09T00:34:31.377Z,100305.88
2022-11-09T00:39:54.775Z,100301.53
2022-11-09T00:45:18.222Z,100303.44
2022-11-09T00:50:42.822Z,100296.13
2022-11-09T00:56:07.760Z,100290.72
2022-11-09T01:01:33.053Z,100283.91
2022-11-09T01:06:57.649Z,100270.28
2022-11-09T01:12:20.791Z,100280.16
2022-11-09T01:17:47.786Z,100277.41
2022-11-09T01:23:16.858Z,100278.44
2022-11-09T01:28:40.894Z,100275.56
2022-11-09T01:34:04.081Z,100283.69
2022-11-09T01:39:31.217Z,100273.44
2022-11-09T01:45:25.698Z,100268.09
2022-11-09T01:50:52.073Z,100280.31
2022-11-09T01:56:16.935Z,100271.63
2022-11-09T02:01:40.165Z,100276.56
2022-11-09T02:07:03.994Z,100281.69
2022-11-09T02:12:30.835Z,100279.19
2022-11-09T02:17:55.063Z,100286.94
2022-11-09T02:23:20.605Z,100283.41
2022-11-09T02:28:44.352Z,100300.00
2022-11-09T02:34:09.498Z,100295.91
2022-11-09T02:39:34.127Z,100292.94
2022-11-09T02:44:59.824Z,100294.53
2022-11-09T02:50:23.464Z,100277.25
2022-11-09T02:55:48.098Z,100252.66
2022-11-09T03:01:11.417Z,100255.59
2022-11-09T03:06:37.803Z,100248.41
2022-11-09T03:12:22.696Z,100252.97
2022-11-09T03:17:46.187Z,100268.84
2022-11-09T03:23:10.995Z,100284.31
2022-11-09T03:28:37.349Z,100309.50
2022-11-09T03:34:00.631Z,100308.66
2022-11-09T03:39:23.945Z,100305.13
2022-11-09T03:44:48.743Z,100324.41
2022-11-09T03:50:15.790Z,100333.22
2022-11-09T03:55:40.048Z,100341.13
2022-11-09T04:01:04.736Z,100347.47
2022-11-09T04:06:28.039Z,100347.28
2022-11-09T04:11:51.259Z,100355.06
2022-11-09T04:17:15.909Z,100346.97
2022-11-09T04:22:41.594Z,100343.34
2022-11-09T04:28:06.482Z,100340.38
2022-11-09T04:33:31.057Z,100340.13
2022-11-09T04:38:54.265Z,100351.59
2022-11-09T04:44:17.450Z,100349.41
2022-11-09T04:49:42.127Z,100349.09
2022-11-09T04:55:06.211Z,100358.34
2022-11-09T05:00:29.371Z,100376.28
2022-11-09T05:05:53.995Z,100368.00
2022-11-09T05:11:17.528Z,100377.81
2022-11-09T05:16:41.035Z,100380.47
2022-11-09T05:22:19.726Z,100372.66
2022-11-09T05:27:42.908Z,100371.88
2022-11-09T05:33:06.545Z,100388.25
2022-11-09T05:38:31.166Z,100386.69
2022-11-09T05:43:54.666Z,100384.75
2022-11-09T05:49:17.839Z,100377.16
2022-11-09T05:54:42.389Z,100391.00
2022-11-09T06:00:10.792Z,100392.78
2022-11-09T06:05:36.690Z,100396.19
2022-11-09T06:11:03.160Z,100403.19
2022-11-09T06:16:26.903Z,100405.03
2022-11-09T06:21:50.106Z,100412.94
2022-11-09T06:27:14.746Z,100406.56
2022-11-09T06:32:38.031Z,100414.00
2022-11-09T06:38:02.114Z,100420.16
2022-11-09T06:43:30.891Z,100422.75
2022-11-09T06:48:54.750Z,100422.75
2022-11-09T06:54:20.453Z,100436.81
2022-11-09T07:05:39.244Z,100444.56
2022-11-09T07:11:16.362Z,100435.59
2022-11-09T07:16:41.137Z,100451.56
2022-11-09T07:22:07.143Z,100462.75
2022-11-09T07:27:32.599Z,100457.69
2022-11-09T07:33:09.665Z,100467.19
2022-11-09T07:38:33.711Z,100460.09
2022-11-09T07:43:57.001Z,100462.53
2022-11-09T07:49:24.715Z,100471.00
2022-11-09T07:54:52.297Z,100476.06
2022-11-09T08:00:22.459Z,100476.19
2022-11-09T08:05:50.421Z,100487.25
2022-11-09T08:11:13.729Z,100481.69
2022-11-09T08:16:38.024Z,100486.75
2022-11-09T08:22:05.449Z,100492.66
2022-11-09T08:27:31.481Z,100494.03
2022-11-09T08:32:54.664Z,100491.13
2022-11-09T08:38:19.765Z,100489.06
2022-11-09T08:43:45.857Z,100499.88
2022-11-09T08:49:09.162Z,100489.78
2022-11-09T08:54:33.787Z,100489.72
2022-11-09T08:59:57.183Z,100492.00
2022-11-09T09:05:20.626Z,100495.28
2022-11-09T09:10:45.362Z,100505.41
2022-11-09T09:16:19.860Z,100512.44
2022-11-09T09:21:46.217Z,100514.09
2022-11-09T09:27:12.803Z,100515.22
2022-11-09T09:32:44.267Z,100505.47
2022-11-09T09:38:08.488Z,100516.69
2022-11-09T09:43:43.328Z,100526.44
2022-11-09T09:49:12.965Z,100509.88
2022-11-09T09:54:40.541Z,100530.34
2022-11-09T10:00:36.999Z,100535.34
2022-11-09T10:06:16.300Z,100533.31
2022-11-09T10:11:45.457Z,100540.84
2022-11-09T10:17:21.026Z,100540.16
2022-11-09T10:22:52.351Z,100558.56
2022-11-09T10:28:19.036Z,100563.63
2022-11-09T10:33:48.619Z,100563.91
2022-11-09T10:39:15.507Z,100558.50
2022-11-09T10:44:57.582Z,100531.88
2022-11-09T10:50:47.629Z,100537.25
2022-11-09T10:56:33.070Z,100518.28
2022-11-09T11:02:45.152Z,100539.00
2022-11-09T11:08:35.498Z,100549.84
2022-11-09T11:14:33.011Z,100545.16
2022-11-09T11:20:28.804Z,100532.06
2022-11-09T11:26:31.754Z,100535.03
2022-11-09T11:32:16.069Z,100561.38
2022-11-09T11:38:10.227Z,100554.81
2022-11-09T11:50:24.663Z,100541.78
2022-11-09T11:56:16.628Z,100557.81
2022-11-09T12:02:14.689Z,100554.81
2022-11-09T12:08:00.462Z,100544.25
2022-11-09T12:13:53.263Z,100560.50
2022-11-09T12:19:53.678Z,100551.88
2022-11-09T12:25:38.271Z,100551.06
2022-11-09T12:31:27.652Z,100558.56
2022-11-09T12:37:17.566Z,100569.66
2022-11-09T12:43:03.479Z,100576.34
2022-11-09T12:48:46.522Z,100586.09
2022-11-09T12:54:30.273Z,100590.16
2022-11-09T13:00:49.294Z,100597.03
2022-11-09T13:06:32.662Z,100617.69
2022-11-09T13:12:21.018Z,100626.59
2022-11-09T13:18:05.882Z,100616.06
2022-11-09T13:24:00.931Z,100640.00
2022-11-09T13:29:56.060Z,100652.00
2022-11-09T13:36:12.668Z,100649.91
2022-11-09T13:41:54.734Z,100666.38
2022-11-09T13:47:38.183Z,100671.50
2022-11-09T13:53:31.799Z,100684.31
2022-11-09T13:59:17.621Z,100673.69
2022-11-09T14:05:01.964Z,100684.66
2022-11-09T14:10:53.536Z,100684.25
2022-11-09T14:16:43.096Z,100696.41
2022-11-09T14:22:26.281Z,100686.50
2022-11-09T14:28:22.244Z,100697.03
2022-11-09T14:34:06.465Z,100709.09
2022-11-09T14:39:51.042Z,100721.97
2022-11-09T14:45:33.070Z,100735.75
2022-11-09T14:51:16.224Z,100737.97
2022-11-09T14:56:59.539Z,100750.66
2022-11-09T15:02:41.048Z,100762.38
2022-11-09T15:08:23.926Z,100784.50
2022-11-09T15:14:15.106Z,100776.06
2022-11-09T15:19:58.731Z,100783.88
2022-11-09T15:25:55.874Z,100780.44
2022-11-09T15:31:40.372Z,100802.53
2022-11-09T15:37:25.896Z,100806.50
2022-11-09T15:43:07.753Z,100809.50
2022-11-09T15:48:51.658Z,100811.28
2022-11-09T15:54:33.817Z,100832.97
2022-11-09T16:00:20.755Z,100850.66
2022-11-09T16:06:04.565Z,100847.28
2022-11-09T16:11:46.233Z,100866.25
2022-11-09T16:17:28.163Z,100872.09
2022-11-09T16:23:11.379Z,100886.28
2022-11-09T16:28:53.088Z,100892.97
2022-11-09T16:34:34.992Z,100885.03
2022-11-09T16:40:18.607Z,100909.81
2022-11-09T16:46:01.131Z,100924.56
2022-11-09T16:51:43.557Z,100930.59
2022-11-09T16:57:26.791Z,100939.22
2022-11-09T17:03:08.398Z,100949.97
2022-11-09T17:08:50.804Z,100956.69
2022-11-09T17:14:33.905Z,100953.16
2022-11-09T17:20:15.965Z,100969.75
2022-11-09T17:25:58.617Z,100972.81
2022-11-09T17:31:41.612Z,100984.59
2022-11-09T17:37:23.975Z,100991.91
2022-11-09T17:43:06.387Z,101015.19
2022-11-09T17:48:51.080Z,101012.84
2022-11-09T17:54:37.003Z,101023.72
2022-11-09T18:00:20.225Z,101029.34
2022-11-09T18:06:03.528Z,101034.06
2022-11-09T18:11:45.511Z,101036.25
2022-11-09T18:17:27.515Z,101060.88
2022-11-09T18:23:11.072Z,101063.84
2022-11-09T18:28:52.926Z,101063.16
2022-11-09T18:34:34.976Z,101104.31
2022-11-09T18:40:18.321Z,101110.75
2022-11-09T18:46:01.027Z,101115.28
2022-11-09T18:51:42.523Z,101107.94
2022-11-09T18:57:25.666Z,101108.72
2022-11-09T19:03:07.389Z,101121.72
2022-11-09T19:09:06.651Z,101119.94
2022-11-09T19:14:50.046Z,101146.63
2022-11-09T19:20:32.228Z,101142.41
2022-11-09T19:26:13.993Z,101163.38
2022-11-09T19:31:57.084Z,101183.34
2022-11-09T19:37:38.527Z,101188.38
2022-11-09T19:43:20.879Z,101200.75
2022-11-09T19:49:05.450Z,101203.59
2022-11-09T19:54:47.466Z,101207.03
2022-11-09T20:00:29.419Z,101220.59
2022-11-09T20:06:12.554Z,101223.16
2022-11-09T20:12:11.911Z,101235.25
2022-11-09T20:17:53.662Z,101242.34
2022-11-09T20:23:36.855Z,101245.44
2022-11-09T20:29:18.501Z,101256.06
2022-11-09T20:35:00.567Z,101255.91
2022-11-09T20:40:43.750Z,101277.25
2022-11-09T20:46:25.700Z,101277.44
2022-11-09T20:52:07.510Z,101289.09
2022-11-09T20:57:50.981Z,101290.41
2022-11-09T21:03:32.700Z,101288.59
2022-11-09T21:09:14.738Z,101299.13
2022-11-09T21:14:57.995Z,101298.91
2022-11-09T21:20:40.463Z,101311.09
2022-11-09T21:26:39.822Z,101310.09
2022-11-09T21:32:23.774Z,101324.34
2022-11-09T21:38:05.578Z,101338.31
2022-11-09T21:43:47.070Z,101337.25
2022-11-09T21:49:30.780Z,101345.94
2022-11-09T21:55:12.607Z,101364.28
2022-11-09T22:00:54.121Z,101359.88
2022-11-09T22:06:39.048Z,101367.97
2022-11-09T22:12:38.642Z,101377.53
2022-11-09T22:18:34.178Z,101391.63
2022-11-09T22:24:17.319Z,101389.06
2022-11-09T22:29:59.279Z,101387.19
2022-11-09T22:35:41.316Z,101398.75
2022-11-09T22:41:25.524Z,101403.28
2022-11-09T22:47:07.058Z,101419.66
2022-11-09T22:52:53.303Z,101423.09
2022-11-09T22:58:37.448Z,101438.78
2022-11-09T23:04:19.344Z,101438.31
2022-11-09T23:10:01.233Z,101441.28
2022-11-09T23:15:44.535Z,101458.91
2022-11-09T23:21:28.205Z,101459.84
2022-11-09T23:27:09.883Z,101472.16
2022-11-09T23:32:53.303Z,101473.22
2022-11-09T23:38:36.266Z,101464.69
2022-11-09T23:44:18.105Z,101467.47
2022-11-09T23:50:01.077Z,101475.34
2022-11-09T23:55:42.747Z,101486.69
